CheckWX is a tool to help pilots better visualize weather data.  It is not intended as a substitute for an official pre-flight weather briefing.

09:01:27 UTC

KHGR METAR
Hagerstown Regional-Richard A Henson Field Airport
Hagerstown, Maryland, USA
Current

1 hour ago

KHGR 180753Z AUTO 16013KT 10SM BKN110 07/M06 A3020 RMK AO2 SLP239 T00721061
Observed
Feb-18 @ 07:53 UTC
Wind
  • 160° at 13 KTS
Visibility
10 SM
Flight Rules
VFR
Cloud Levels
  • Broken at 11,000' AGL
Temperature
C / 45°F
Dewpoint
-6°C / 21°F
Humidity
39%
Altimeter
30.2" Hg
Pressure
1022.72 hPa
Previous

2 hours ago

KHGR 180653Z AUTO 15011KT 10SM OVC120 07/M04 A3020 RMK AO2 SLP240 T00721039
Observed
Feb-18 @ 06:53 UTC
Wind
  • 150° at 11 KTS
Visibility
10 SM
Flight Rules
VFR
Cloud Levels
  • Overcast at 12,000' AGL
Temperature
C / 45°F
Dewpoint
-4°C / 25°F
Humidity
46%
Altimeter
30.2" Hg
Pressure
1022.72 hPa
Previous

3 hours ago

KHGR 180553Z AUTO 17009KT 10SM SCT120 07/M05 A3023 RMK AO2 SLP250 T00721050 10083 20067 55007
Observed
Feb-18 @ 05:53 UTC
Wind
  • 170° at 9 KTS
Visibility
10 SM
Flight Rules
VFR
Cloud Levels
  • Scattered at 12,000' AGL
Temperature
C / 45°F
Dewpoint
-5°C / 23°F
Humidity
42%
Altimeter
30.23" Hg
Pressure
1023.72 hPa